createdAt,value
2019-03-11T00:03:58.457Z,96.76
2019-03-11T00:06:27.831Z,96.32
2019-03-11T00:08:57.194Z,96.13
2019-03-11T00:11:26.780Z,96.05
2019-03-11T00:13:56.455Z,95.83
2019-03-11T00:16:25.827Z,95.49
2019-03-11T00:18:55.732Z,95.26
2019-03-11T00:21:25.112Z,95.09
2019-03-11T00:23:54.767Z,94.95
2019-03-11T00:26:24.145Z,94.90
2019-03-11T00:28:53.997Z,94.63
2019-03-11T00:31:23.367Z,94.58
2019-03-11T00:33:53.336Z,94.42
2019-03-11T00:36:22.892Z,94.15
2019-03-11T00:38:52.269Z,93.94
2019-03-11T00:41:21.867Z,94.04
2019-03-11T00:43:51.243Z,93.99
2019-03-11T00:46:21.096Z,93.89
2019-03-11T00:48:50.467Z,93.68
2019-03-11T00:51:20.120Z,93.41
2019-03-11T00:53:49.798Z,92.76
2019-03-11T00:56:19.197Z,92.23
2019-03-11T00:58:48.837Z,92.23
2019-03-11T01:04:14.366Z,92.19
2019-03-11T01:06:44.222Z,92.04
2019-03-11T01:09:13.878Z,92.02
2019-03-11T01:12:02.633Z,91.72
2019-03-11T01:14:31.942Z,91.72
2019-03-11T01:17:01.318Z,91.55
2019-03-11T01:19:31.181Z,91.46
2019-03-11T01:22:00.544Z,91.41
2019-03-11T01:24:30.168Z,91.38
2019-03-11T01:26:59.519Z,91.35
2019-03-11T01:29:29.025Z,91.31
2019-03-11T01:31:58.380Z,91.64
2019-03-11T01:34:28.024Z,91.80
2019-03-11T01:37:10.110Z,92.17
2019-03-11T01:39:39.480Z,92.17
2019-03-11T01:42:09.150Z,92.64
2019-03-11T01:44:38.521Z,92.69
2019-03-11T01:47:08.128Z,92.77
2019-03-11T01:49:37.495Z,92.88
2019-03-11T01:52:07.294Z,92.94
2019-03-11T01:54:36.665Z,93.06
2019-03-11T01:57:06.254Z,93.02
2019-03-11T01:59:35.926Z,93.19
2019-03-11T02:02:05.277Z,93.28
2019-03-11T02:04:36.279Z,93.53
2019-03-11T02:07:05.629Z,93.61
2019-03-11T02:09:35.282Z,93.51
2019-03-11T02:12:04.638Z,93.52
2019-03-11T02:14:34.270Z,93.46
2019-03-11T02:17:03.625Z,93.38
2019-03-11T02:19:33.160Z,93.02
2019-03-11T02:22:02.521Z,92.76
2019-03-11T02:24:31.894Z,91.99
2019-03-11T02:27:01.262Z,91.99
2019-03-11T02:29:32.272Z,92.40
2019-03-11T02:32:01.635Z,92.27
2019-03-11T02:34:31.304Z,92.13
2019-03-11T02:37:00.934Z,91.97
2019-03-11T02:39:30.495Z,91.92
2019-03-11T02:41:59.859Z,91.86
2019-03-11T02:44:29.535Z,91.91
2019-03-11T02:46:58.892Z,91.29
2019-03-11T02:49:28.618Z,91.15
2019-03-11T02:51:58.570Z,90.94
2019-03-11T02:54:28.231Z,90.97
2019-03-11T02:57:11.339Z,91.34
2019-03-11T02:59:40.720Z,91.34
2019-03-11T03:02:29.206Z,91.30
2019-03-11T03:05:18.033Z,91.73
2019-03-11T03:08:06.799Z,92.27
2019-03-11T03:10:36.182Z,92.82
2019-03-11T03:13:05.545Z,93.34
2019-03-11T03:15:34.919Z,93.49
2019-03-11T03:18:04.529Z,93.71
2019-03-11T03:20:33.905Z,93.55
2019-03-11T03:23:03.555Z,93.57
2019-03-11T03:25:34.906Z,93.57
2019-03-11T03:28:23.097Z,93.19
2019-03-11T03:30:52.935Z,93.09
2019-03-11T03:33:22.585Z,93.09
2019-03-11T03:35:52.127Z,93.08
2019-03-11T03:38:30.650Z,92.62
2019-03-11T03:40:58.018Z,92.23
2019-03-11T03:43:27.641Z,92.19
2019-03-11T03:45:58.913Z,92.14
2019-03-11T03:48:28.653Z,92.28
2019-03-11T03:50:58.258Z,92.28
2019-03-11T03:53:27.616Z,92.21
2019-03-11T03:55:57.014Z,92.33
2019-03-11T03:58:26.616Z,92.66
2019-03-11T04:00:56.290Z,92.96
2019-03-11T04:03:25.821Z,93.15
2019-03-11T04:05:55.165Z,93.56
2019-03-11T04:08:24.763Z,93.82
2019-03-11T04:10:54.221Z,94.00
2019-03-11T04:13:23.647Z,94.24
2019-03-11T04:15:53.028Z,94.32
2019-03-11T04:21:45.892Z,94.54
2019-03-11T04:24:15.264Z,94.69
2019-03-11T04:26:44.933Z,94.89
2019-03-11T04:29:14.289Z,94.84
2019-03-11T04:31:43.953Z,94.73
2019-03-11T04:34:13.609Z,94.58
2019-03-11T04:36:43.111Z,94.55
2019-03-11T04:39:12.764Z,94.12
2019-03-11T04:41:43.091Z,93.25
2019-03-11T04:44:12.745Z,92.99
2019-03-11T04:46:43.418Z,93.01
2019-03-11T04:49:13.043Z,93.49
2019-03-11T04:51:43.149Z,94.15
2019-03-11T04:54:12.797Z,94.56
2019-03-11T04:56:43.191Z,94.80
2019-03-11T05:02:15.120Z,94.77
2019-03-11T05:04:45.086Z,94.71
2019-03-11T05:07:14.760Z,94.65
2019-03-11T05:09:44.164Z,94.89
2019-03-11T05:12:13.814Z,94.89
2019-03-11T05:14:43.323Z,94.68
2019-03-11T05:17:12.911Z,94.75
2019-03-11T05:19:43.160Z,94.84
2019-03-11T05:22:12.812Z,94.68
2019-03-11T05:24:43.290Z,94.58
2019-03-11T05:27:12.801Z,94.47
2019-03-11T05:29:43.203Z,94.36
2019-03-11T05:32:12.869Z,94.16
2019-03-11T05:37:45.221Z,94.05
2019-03-11T05:40:54.937Z,93.74
2019-03-11T05:43:24.291Z,93.56
2019-03-11T05:45:53.963Z,93.54
2019-03-11T05:48:23.322Z,93.47
2019-03-11T05:50:54.451Z,93.43
2019-03-11T05:53:23.941Z,93.38
2019-03-11T05:55:53.436Z,93.18
2019-03-11T05:58:43.485Z,93.13
2019-03-11T06:01:13.121Z,93.02
2019-03-11T06:03:43.407Z,92.95
2019-03-11T06:06:13.057Z,92.88
2019-03-11T06:08:43.312Z,92.39
2019-03-11T06:11:13.370Z,92.25
2019-03-11T06:13:43.410Z,91.76
2019-03-11T06:16:13.081Z,91.76
2019-03-11T06:21:43.374Z,91.53
2019-03-11T06:24:14.463Z,91.58
2019-03-11T06:26:44.134Z,91.20
2019-03-11T06:29:13.498Z,91.15
2019-03-11T06:31:43.541Z,91.07
2019-03-11T06:34:13.260Z,91.44
2019-03-11T06:36:43.489Z,91.93
2019-03-11T06:39:13.172Z,92.44
2019-03-11T06:41:43.584Z,92.82
2019-03-11T06:44:13.231Z,93.11
2019-03-11T06:46:45.886Z,93.55
2019-03-11T06:49:20.307Z,93.75
2019-03-11T06:51:49.683Z,93.83
2019-03-11T06:54:19.240Z,93.72
2019-03-11T06:56:48.619Z,93.22
2019-03-11T06:59:18.235Z,92.63
2019-03-11T07:01:47.587Z,92.15
2019-03-11T07:04:17.260Z,92.03
2019-03-11T07:06:46.951Z,91.45
2019-03-11T07:09:16.469Z,90.98
2019-03-11T07:11:46.147Z,90.88
2019-03-11T07:14:15.511Z,90.65
2019-03-11T07:16:45.466Z,91.65
2019-03-11T07:19:14.843Z,91.65
2019-03-11T07:21:44.513Z,91.82
2019-03-11T07:24:13.872Z,92.33
2019-03-11T07:26:43.705Z,92.69
2019-03-11T07:29:13.331Z,92.82
2019-03-11T07:31:43.701Z,93.15
2019-03-11T07:34:13.602Z,93.42
2019-03-11T07:36:43.830Z,93.62
2019-03-11T07:39:13.458Z,93.62
2019-03-11T07:41:43.752Z,93.76
2019-03-11T07:44:13.374Z,94.06
2019-03-11T07:46:45.590Z,94.25
2019-03-11T07:49:33.962Z,94.63
2019-03-11T07:52:03.616Z,94.92
2019-03-11T07:54:36.058Z,95.02
2019-03-11T07:57:11.065Z,95.21
2019-03-11T07:59:49.826Z,95.26
2019-03-11T08:02:19.489Z,94.91
2019-03-11T08:04:48.863Z,94.46
2019-03-11T08:07:18.562Z,94.42
2019-03-11T08:09:47.942Z,94.51
2019-03-11T08:12:17.834Z,95.06
2019-03-11T08:14:47.746Z,95.27
2019-03-11T08:17:17.132Z,95.53
2019-03-11T08:19:46.581Z,96.09
2019-03-11T08:22:15.964Z,96.79
2019-03-11T08:24:45.471Z,97.14
2019-03-11T08:27:15.098Z,97.73
2019-03-11T08:29:44.751Z,98.30
2019-03-11T08:32:14.135Z,98.72
2019-03-11T08:34:43.931Z,98.94
2019-03-11T08:37:13.638Z,99.20
2019-03-11T08:39:43.980Z,99.23
2019-03-11T08:42:13.698Z,99.18
2019-03-11T08:44:44.013Z,99.25
2019-03-11T08:47:13.993Z,99.42
2019-03-11T08:49:43.987Z,99.56
2019-03-11T08:52:13.646Z,99.98
2019-03-11T08:54:43.978Z,100.00
2019-03-11T08:57:14.969Z,100.00
2019-03-11T08:59:44.625Z,98.99
2019-03-11T09:02:14.248Z,98.27
2019-03-11T09:04:44.037Z,98.20
2019-03-11T09:07:13.749Z,97.88
2019-03-11T09:09:44.091Z,98.07
2019-03-11T09:12:13.813Z,98.34
2019-03-11T09:14:44.215Z,98.48
2019-03-11T09:17:13.706Z,98.82
2019-03-11T09:19:44.450Z,99.36
2019-03-11T09:22:13.826Z,99.64
2019-03-11T09:24:44.102Z,100.00
2019-03-11T09:27:14.020Z,100.00
2019-03-11T09:29:44.237Z,100.00
2019-03-11T09:32:14.231Z,100.00
2019-03-11T09:34:44.137Z,99.56
2019-03-11T09:37:13.770Z,99.03
2019-03-11T09:39:44.370Z,99.05
2019-03-11T09:42:13.956Z,99.23
2019-03-11T09:44:44.231Z,98.00
2019-03-11T09:47:14.223Z,97.72
2019-03-11T09:49:44.549Z,98.17
2019-03-11T09:52:13.922Z,98.28
2019-03-11T09:54:44.143Z,97.91
2019-03-11T09:57:13.517Z,97.85
2019-03-11T09:59:44.296Z,98.10
2019-03-11T10:02:13.951Z,97.63
2019-03-11T10:04:44.457Z,95.83
2019-03-11T10:07:14.085Z,94.88
2019-03-11T10:09:44.260Z,94.93
2019-03-11T10:12:13.960Z,94.67
2019-03-11T10:14:44.294Z,92.32
2019-03-11T10:17:13.949Z,92.03
2019-03-11T10:19:44.289Z,90.36
2019-03-11T10:22:13.949Z,90.56
2019-03-11T10:24:44.420Z,90.83
2019-03-11T10:27:14.022Z,92.15
2019-03-11T10:29:44.261Z,92.58
2019-03-11T10:32:13.922Z,93.46
2019-03-11T10:34:44.282Z,92.20
2019-03-11T10:37:13.949Z,92.20
2019-03-11T10:39:47.832Z,91.86
2019-03-11T10:42:22.083Z,92.45
2019-03-11T10:44:51.447Z,91.49
2019-03-11T10:47:21.068Z,89.16
2019-03-11T10:49:50.426Z,88.27
2019-03-11T10:52:20.429Z,88.22
2019-03-11T10:54:50.082Z,87.50
2019-03-11T10:57:19.444Z,87.17
2019-03-11T10:59:49.010Z,87.47
2019-03-11T11:02:18.386Z,87.95
2019-03-11T11:04:48.354Z,87.11
2019-03-11T11:07:17.726Z,87.52
2019-03-11T11:09:47.431Z,87.13
2019-03-11T11:12:17.040Z,88.17
2019-03-11T11:14:46.674Z,88.17
2019-03-11T11:17:16.102Z,88.40
2019-03-11T11:19:45.755Z,88.37
2019-03-11T11:22:15.332Z,89.05
2019-03-11T11:24:44.688Z,88.86
2019-03-11T11:27:14.561Z,88.97
2019-03-11T11:29:44.554Z,89.44
2019-03-11T11:32:14.185Z,89.33
2019-03-11T11:34:44.486Z,90.59
2019-03-11T11:37:14.142Z,91.07
2019-03-11T11:39:44.590Z,92.15
2019-03-11T11:42:14.547Z,92.59
2019-03-11T11:44:44.914Z,92.86
2019-03-11T11:47:14.290Z,92.90
2019-03-11T11:49:44.567Z,93.59
2019-03-11T11:52:14.209Z,94.47
2019-03-11T11:54:43.602Z,94.45
2019-03-11T11:57:13.243Z,94.78
2019-03-11T11:59:53.228Z,94.93
2019-03-11T12:02:33.036Z,95.08
2019-03-11T12:05:02.448Z,95.48
2019-03-11T12:07:31.852Z,95.10
2019-03-11T12:10:01.465Z,95.43
2019-03-11T12:12:30.847Z,95.40
2019-03-11T12:15:00.572Z,95.52
2019-03-11T12:17:30.479Z,95.41
2019-03-11T12:20:00.980Z,95.21
2019-03-11T12:22:30.588Z,95.51
2019-03-11T12:24:59.968Z,95.30
2019-03-11T12:27:31.576Z,95.27
2019-03-11T12:30:39.664Z,95.67
2019-03-11T12:33:09.027Z,95.67
2019-03-11T12:35:38.689Z,95.25
2019-03-11T12:38:08.051Z,94.60
2019-03-11T12:40:38.006Z,94.49
2019-03-11T12:43:07.657Z,93.60
2019-03-11T12:45:37.036Z,92.98
2019-03-11T12:48:06.794Z,93.64
2019-03-11T12:50:36.228Z,93.50
2019-03-11T12:53:05.669Z,91.96
2019-03-11T12:55:35.274Z,90.75
2019-03-11T12:58:04.878Z,89.84
2019-03-11T13:00:34.268Z,90.18
2019-03-11T13:03:04.080Z,90.40
2019-03-11T13:05:53.121Z,88.16
2019-03-11T13:08:22.690Z,88.16
2019-03-11T13:10:52.342Z,86.67
2019-03-11T13:13:34.577Z,85.83
2019-03-11T13:16:03.936Z,85.83
2019-03-11T13:21:55.199Z,82.80
2019-03-11T13:24:37.163Z,83.62
2019-03-11T13:27:18.674Z,80.55
2019-03-11T13:29:48.332Z,80.55
2019-03-11T13:32:17.859Z,80.58
2019-03-11T13:34:47.215Z,80.58
2019-03-11T13:37:16.798Z,83.44
2019-03-11T13:39:46.158Z,83.44
2019-03-11T13:42:15.755Z,83.85
2019-03-11T13:44:45.135Z,83.85
2019-03-11T13:47:14.814Z,84.57
2019-03-11T13:49:45.154Z,85.10
2019-03-11T13:52:14.822Z,85.40
2019-03-11T13:54:45.179Z,84.32
2019-03-11T13:57:14.872Z,84.62
2019-03-11T13:59:45.177Z,85.62
2019-03-11T14:02:54.898Z,85.70
2019-03-11T14:05:24.253Z,87.42
2019-03-11T14:07:53.923Z,89.66
2019-03-11T14:10:23.534Z,91.66
2019-03-11T14:12:53.115Z,92.06
2019-03-11T14:18:57.154Z,92.16
2019-03-11T14:21:26.864Z,90.59
2019-03-11T14:23:58.147Z,90.59
2019-03-11T14:26:27.510Z,90.38
2019-03-11T14:28:57.532Z,90.16
2019-03-11T14:31:27.345Z,90.23
2019-03-11T14:34:09.657Z,90.22
2019-03-11T14:36:39.015Z,90.22
2019-03-11T14:39:08.458Z,89.25
2019-03-11T14:41:39.722Z,90.05
2019-03-11T14:44:21.854Z,90.58
2019-03-11T14:46:52.314Z,90.11
2019-03-11T14:52:45.416Z,90.96
2019-03-11T14:55:15.153Z,91.97
2019-03-11T14:57:45.412Z,92.46
2019-03-11T15:00:34.311Z,93.50
2019-03-11T15:03:03.939Z,93.96
2019-03-11T15:05:33.303Z,94.04
2019-03-11T15:08:02.973Z,94.28
2019-03-11T15:10:32.340Z,94.48
2019-03-11T15:13:02.023Z,94.26
2019-03-11T15:18:20.311Z,94.74
2019-03-11T15:20:49.707Z,94.58
2019-03-11T15:23:20.941Z,94.38
2019-03-11T15:25:59.623Z,94.52
2019-03-11T15:28:29.072Z,94.25
2019-03-11T15:30:58.427Z,94.21
2019-03-11T15:33:28.034Z,94.49
2019-03-11T15:35:57.683Z,94.53
2019-03-11T15:38:27.529Z,94.59
2019-03-11T15:40:57.183Z,94.95
2019-03-11T15:43:37.442Z,94.75
2019-03-11T15:46:07.141Z,95.00
2019-03-11T15:49:16.555Z,95.79
2019-03-11T15:51:46.458Z,95.58
2019-03-11T15:54:16.169Z,95.99
2019-03-11T15:56:45.568Z,96.07
2019-03-11T15:59:15.270Z,96.09
2019-03-11T16:01:45.839Z,96.23
2019-03-11T16:04:15.473Z,96.24
2019-03-11T16:06:45.556Z,95.97
2019-03-11T16:09:19.333Z,95.86
2019-03-11T16:12:05.527Z,95.81
2019-03-11T16:14:35.241Z,96.07
2019-03-11T16:17:04.726Z,96.11
2019-03-11T16:19:34.221Z,96.07
2019-03-11T16:22:23.316Z,96.20
2019-03-11T16:24:47.501Z,95.99
2019-03-11T16:27:17.162Z,96.13
2019-03-11T16:29:46.847Z,96.19
2019-03-11T16:32:16.335Z,96.45
2019-03-11T16:34:45.735Z,96.75
2019-03-11T16:37:15.273Z,96.68
2019-03-11T16:39:45.685Z,96.99
2019-03-11T16:42:15.234Z,97.38
2019-03-11T16:44:45.586Z,97.74
2019-03-11T16:47:14.945Z,98.25
2019-03-11T16:49:45.753Z,98.68
2019-03-11T16:52:15.416Z,98.95
2019-03-11T16:54:45.689Z,99.04
2019-03-11T16:57:15.302Z,99.33
2019-03-11T16:59:45.626Z,99.28
2019-03-11T17:02:15.310Z,99.45
2019-03-11T17:04:46.070Z,99.59
2019-03-11T17:07:15.435Z,99.49
2019-03-11T17:09:45.676Z,99.37
2019-03-11T17:12:16.650Z,98.85
2019-03-11T17:14:46.334Z,98.56
2019-03-11T17:17:15.699Z,98.17
2019-03-11T17:19:45.799Z,97.89
2019-03-11T17:22:27.921Z,97.60
2019-03-11T17:24:57.583Z,97.61
2019-03-11T17:27:26.939Z,97.39
2019-03-11T17:29:56.917Z,96.97
2019-03-11T17:32:26.520Z,96.66
2019-03-11T17:34:56.155Z,96.42
2019-03-11T17:37:25.509Z,96.05
2019-03-11T17:39:55.251Z,95.85
2019-03-11T17:42:24.899Z,95.64
2019-03-11T17:44:54.570Z,95.42
2019-03-11T17:47:23.926Z,94.60
2019-03-11T17:49:53.590Z,94.54
2019-03-11T17:52:22.945Z,94.64
2019-03-11T17:54:52.609Z,94.55
2019-03-11T17:57:22.225Z,94.38
2019-03-11T17:59:51.852Z,94.20
2019-03-11T18:02:21.501Z,94.03
2019-03-11T18:04:51.217Z,94.41
2019-03-11T18:07:22.579Z,94.26
2019-03-11T18:09:51.927Z,94.18
2019-03-11T18:12:21.288Z,94.15
2019-03-11T18:14:50.992Z,93.95
2019-03-11T18:17:33.084Z,94.05
2019-03-11T18:20:30.109Z,93.68
2019-03-11T18:22:59.580Z,93.34
2019-03-11T18:25:39.864Z,92.51
2019-03-11T18:28:09.502Z,91.46
2019-03-11T18:30:38.884Z,90.61
2019-03-11T18:33:08.508Z,90.51
2019-03-11T18:35:37.851Z,90.10
2019-03-11T18:38:07.209Z,90.11
2019-03-11T18:40:36.708Z,89.45
2019-03-11T18:43:06.056Z,88.93
2019-03-11T18:45:35.706Z,89.17
2019-03-11T18:48:05.132Z,89.53
2019-03-11T18:50:34.740Z,89.37
2019-03-11T18:53:04.174Z,89.82
2019-03-11T18:55:33.778Z,89.86
2019-03-11T18:58:03.125Z,90.05
2019-03-11T19:00:40.222Z,90.34
2019-03-11T19:03:09.846Z,90.60
2019-03-11T19:05:39.197Z,91.07
2019-03-11T19:08:09.204Z,91.19
2019-03-11T19:10:38.899Z,91.18
2019-03-11T19:13:09.602Z,91.34
2019-03-11T19:15:59.078Z,91.29
2019-03-11T19:18:28.458Z,91.44
2019-03-11T19:20:58.205Z,91.59
2019-03-11T19:23:27.901Z,91.50
2019-03-11T19:25:57.368Z,91.32
2019-03-11T19:28:26.925Z,91.34
2019-03-11T19:30:56.760Z,91.55
2019-03-11T19:33:46.443Z,91.29
2019-03-11T19:36:16.152Z,91.30
2019-03-11T19:38:46.282Z,91.34
2019-03-11T19:41:15.935Z,91.28
2019-03-11T19:43:46.214Z,90.85
2019-03-11T19:46:15.976Z,90.85
2019-03-11T19:48:46.303Z,91.06
2019-03-11T19:51:15.938Z,91.16
2019-03-11T19:53:46.465Z,91.09
2019-03-11T19:56:16.026Z,91.10
2019-03-11T19:58:46.389Z,91.11
2019-03-11T20:01:16.323Z,91.20
2019-03-11T20:03:46.432Z,91.27
2019-03-11T20:06:16.081Z,91.24
2019-03-11T20:08:46.533Z,91.44
2019-03-11T20:11:16.170Z,91.72
2019-03-11T20:13:46.453Z,91.89
2019-03-11T20:16:16.074Z,92.09
2019-03-11T20:18:46.765Z,92.54
2019-03-11T20:21:16.242Z,92.83
2019-03-11T20:23:46.442Z,93.25
2019-03-11T20:26:18.485Z,93.59
2019-03-11T20:28:52.634Z,94.05
2019-03-11T20:31:22.159Z,94.18
2019-03-11T20:33:51.880Z,94.39
2019-03-11T20:36:21.626Z,94.66
2019-03-11T20:39:01.479Z,94.75
2019-03-11T20:41:32.498Z,95.10
2019-03-11T20:44:04.934Z,95.08
2019-03-11T20:46:53.464Z,95.14
2019-03-11T20:49:23.201Z,95.12
2019-03-11T20:51:52.537Z,95.10
2019-03-11T20:54:22.240Z,95.01
2019-03-11T20:56:51.873Z,95.09
2019-03-11T20:59:21.314Z,95.19
2019-03-11T21:01:50.821Z,95.01
2019-03-11T21:04:20.348Z,95.14
2019-03-11T21:06:50.027Z,95.13
2019-03-11T21:09:19.448Z,95.01
2019-03-11T21:11:48.806Z,95.15
2019-03-11T21:14:18.423Z,95.33
2019-03-11T21:16:47.763Z,95.51
2019-03-11T21:19:17.379Z,95.86
2019-03-11T21:21:46.811Z,96.03
2019-03-11T21:24:16.444Z,96.07
2019-03-11T21:26:46.754Z,96.13
2019-03-11T21:29:16.423Z,96.29
2019-03-11T21:31:46.806Z,96.33
2019-03-11T21:34:16.315Z,96.29
2019-03-11T21:36:46.703Z,96.28
2019-03-11T21:39:16.495Z,96.40
2019-03-11T21:41:46.872Z,96.44
2019-03-11T21:44:16.408Z,96.49
2019-03-11T21:46:47.067Z,96.58
2019-03-11T21:49:16.393Z,96.62
2019-03-11T21:51:46.804Z,96.62
2019-03-11T21:54:16.500Z,96.64
2019-03-11T21:56:46.915Z,96.47
2019-03-11T21:59:16.536Z,96.56
2019-03-11T22:01:46.877Z,96.71
2019-03-11T22:04:16.525Z,96.85
2019-03-11T22:06:46.892Z,97.14
2019-03-11T22:09:17.855Z,97.20
2019-03-11T22:11:47.527Z,97.45
2019-03-11T22:14:16.883Z,97.45
2019-03-11T22:16:46.902Z,97.20
2019-03-11T22:19:16.518Z,96.92
2019-03-11T22:21:46.881Z,96.84
2019-03-11T22:24:16.531Z,96.70
2019-03-11T22:26:47.816Z,96.87
2019-03-11T22:29:17.810Z,96.92
2019-03-11T22:31:47.463Z,96.87
2019-03-11T22:34:16.850Z,96.82
2019-03-11T22:36:46.936Z,96.70
2019-03-11T22:39:16.598Z,96.70
2019-03-11T22:41:47.023Z,96.76
2019-03-11T22:44:16.663Z,96.75
2019-03-11T22:46:47.222Z,96.99
2019-03-11T22:49:16.577Z,97.25
2019-03-11T22:51:46.990Z,97.43
2019-03-11T22:54:16.637Z,97.62
2019-03-11T22:56:47.401Z,97.62
2019-03-11T22:59:17.517Z,97.67
2019-03-11T23:01:47.596Z,97.57
2019-03-11T23:04:16.975Z,97.54
2019-03-11T23:06:47.089Z,97.42
2019-03-11T23:09:16.764Z,97.29
2019-03-11T23:11:47.099Z,97.07
2019-03-11T23:14:16.780Z,96.82
2019-03-11T23:16:47.115Z,96.70
2019-03-11T23:19:16.766Z,96.63
2019-03-11T23:21:47.670Z,96.67
2019-03-11T23:27:11.564Z,97.05
2019-03-11T23:29:40.928Z,97.21
2019-03-11T23:32:10.302Z,97.12
2019-03-11T23:34:39.830Z,97.34
2019-03-11T23:37:09.189Z,97.40
2019-03-11T23:39:38.575Z,97.43
2019-03-11T23:42:07.953Z,97.30
2019-03-11T23:44:37.342Z,97.18
2019-03-11T23:47:06.865Z,97.15
2019-03-11T23:49:36.241Z,97.21
2019-03-11T23:52:05.869Z,97.32
2019-03-11T23:54:35.240Z,97.33
2019-03-11T23:57:04.923Z,97.53
2019-03-11T23:59:34.306Z,97.65
